createdAt,value
2019-03-18T00:01:01.080Z,103153.97
2019-03-18T00:03:33.483Z,103171.30
2019-03-18T00:06:04.783Z,103112.28
2019-03-18T00:08:36.076Z,103068.41
2019-03-18T00:11:08.628Z,103014.78
2019-03-18T00:13:40.315Z,102979.78
2019-03-18T00:16:11.635Z,102924.36
2019-03-18T00:18:42.826Z,102900.02
2019-03-18T00:21:14.099Z,102859.22
2019-03-18T00:23:46.412Z,102830.43
2019-03-18T00:26:17.617Z,102799.44
2019-03-18T00:28:48.928Z,102751.58
2019-03-18T00:31:20.239Z,102689.96
2019-03-18T00:33:51.437Z,102646.90
2019-03-18T00:36:22.607Z,102623.39
2019-03-18T00:38:54.943Z,102623.92
2019-03-18T00:41:26.264Z,102604.37
2019-03-18T00:43:57.484Z,102583.98
2019-03-18T00:46:29.114Z,102588.02
2019-03-18T00:49:00.328Z,102564.92
2019-03-18T00:51:32.029Z,102570.30
2019-03-18T00:54:05.320Z,102560.98
2019-03-18T00:56:37.050Z,102541.48
2019-03-18T00:59:08.831Z,102516.67
2019-03-18T01:01:40.215Z,102532.65
2019-03-18T01:04:11.431Z,102505.16
2019-03-18T01:06:43.747Z,102476.80
2019-03-18T01:09:15.154Z,102451.98
2019-03-18T01:11:46.804Z,102416.11
2019-03-18T01:14:18.027Z,102406.80
2019-03-18T01:16:49.300Z,102378.41
2019-03-18T01:19:20.705Z,102330.15
2019-03-18T01:21:52.602Z,102289.37
2019-03-18T01:24:23.910Z,102272.98
2019-03-18T01:26:55.171Z,102268.98
2019-03-18T01:29:26.448Z,102226.44
2019-03-18T01:31:57.646Z,102177.27
2019-03-18T01:34:28.892Z,102164.43
2019-03-18T01:37:00.972Z,102160.46
2019-03-18T01:39:32.950Z,102111.80
2019-03-18T01:42:04.262Z,102122.39
2019-03-18T01:44:35.869Z,102103.77
2019-03-18T01:47:07.055Z,102100.65
2019-03-18T01:49:38.300Z,102066.59
2019-03-18T01:52:09.769Z,102066.55
2019-03-18T01:54:43.247Z,102052.38
2019-03-18T01:57:14.941Z,102030.19
2019-03-18T01:59:46.146Z,101996.02
2019-03-18T02:02:18.781Z,101946.86
2019-03-18T02:04:50.053Z,101909.64
2019-03-18T02:07:22.256Z,101872.31
2019-03-18T02:09:53.802Z,101829.35
2019-03-18T02:12:25.665Z,101796.61
2019-03-18T02:14:57.915Z,101782.38
2019-03-18T02:17:29.092Z,101769.14
2019-03-18T02:20:00.719Z,101762.03
2019-03-18T02:22:33.425Z,101763.84
2019-03-18T02:25:04.787Z,101778.78
2019-03-18T02:27:36.505Z,101764.12
2019-03-18T02:30:07.857Z,101721.73
2019-03-18T02:32:39.033Z,101718.19
2019-03-18T02:35:10.656Z,101677.92
2019-03-18T02:37:41.934Z,101594.75
2019-03-18T02:40:13.736Z,101517.59
2019-03-18T02:42:45.064Z,101499.83
2019-03-18T02:45:17.031Z,101477.72
2019-03-18T02:47:48.239Z,101467.55
2019-03-18T02:50:19.427Z,101476.22
2019-03-18T02:52:50.713Z,101485.91
2019-03-18T02:55:22.041Z,101457.00
2019-03-18T02:57:54.172Z,101454.67
2019-03-18T03:00:25.454Z,101403.36
2019-03-18T03:02:56.649Z,101425.30
2019-03-18T03:05:27.871Z,101397.81
2019-03-18T03:07:59.086Z,101355.22
2019-03-18T03:10:30.272Z,101317.66
2019-03-18T03:13:01.432Z,101286.33
2019-03-18T03:15:32.719Z,101273.90
2019-03-18T03:18:04.483Z,101278.20
2019-03-18T03:20:37.035Z,101271.48
2019-03-18T03:23:08.314Z,101236.48
2019-03-18T03:25:39.986Z,101215.14
2019-03-18T03:28:11.092Z,101194.64
2019-03-18T03:30:42.284Z,101154.97
2019-03-18T03:33:13.543Z,101126.52
2019-03-18T03:35:44.735Z,101127.25
2019-03-18T03:38:15.959Z,101128.11
2019-03-18T03:40:47.178Z,101128.07
2019-03-18T03:43:18.680Z,101113.95
2019-03-18T03:45:50.077Z,101122.09
2019-03-18T03:48:21.267Z,101119.83
2019-03-18T03:50:52.503Z,101107.08
2019-03-18T03:53:24.875Z,101100.95
2019-03-18T03:55:56.130Z,101082.42
2019-03-18T03:58:27.461Z,101175.36
2019-03-18T04:00:58.598Z,101278.75
2019-03-18T04:03:38.366Z,101396.52
2019-03-18T04:06:02.877Z,101482.86
2019-03-18T04:08:34.354Z,101563.11
2019-03-18T04:11:08.552Z,101624.70
2019-03-18T04:13:39.854Z,101674.22
2019-03-18T04:16:11.085Z,101690.63
2019-03-18T04:18:42.817Z,101694.58
2019-03-18T04:21:14.040Z,101696.70
2019-03-18T04:23:45.829Z,101691.88
2019-03-18T04:26:16.979Z,101679.02
2019-03-18T04:28:48.601Z,101684.00
2019-03-18T04:31:19.811Z,101702.13
2019-03-18T04:33:51.566Z,101722.95
2019-03-18T04:36:22.789Z,101741.09
2019-03-18T04:38:54.365Z,101757.94
2019-03-18T04:41:25.559Z,101787.96
2019-03-18T04:43:56.805Z,101797.16
2019-03-18T04:46:28.842Z,101811.31
2019-03-18T04:49:00.130Z,101804.16
2019-03-18T04:51:31.722Z,101788.61
2019-03-18T04:54:03.479Z,101759.36
2019-03-18T04:56:34.654Z,101702.27
2019-03-18T04:59:07.172Z,101649.17
2019-03-18T05:01:38.833Z,101632.79
2019-03-18T05:04:10.172Z,101625.61
2019-03-18T05:06:41.316Z,101615.83
2019-03-18T05:09:12.537Z,101577.86
2019-03-18T05:11:43.749Z,101578.24
2019-03-18T05:14:15.389Z,101562.35
2019-03-18T05:16:47.012Z,101583.51
2019-03-18T05:19:18.227Z,101571.19
2019-03-18T05:21:49.401Z,101579.63
2019-03-18T05:24:20.616Z,101590.72
2019-03-18T05:26:52.185Z,101595.52
2019-03-18T05:29:23.781Z,101595.52
2019-03-18T05:31:54.924Z,101590.59
2019-03-18T05:34:26.152Z,101565.30
2019-03-18T05:36:57.361Z,101549.34
2019-03-18T05:39:28.561Z,101549.72
2019-03-18T05:41:59.780Z,101550.14
2019-03-18T05:44:31.095Z,101553.62
2019-03-18T05:47:02.356Z,101553.61
2019-03-18T05:49:33.483Z,101536.73
2019-03-18T05:52:05.065Z,101529.17
2019-03-18T05:54:36.172Z,101544.39
2019-03-18T05:57:07.880Z,101516.64
2019-03-18T05:59:39.011Z,101498.98
2019-03-18T06:02:10.738Z,101522.51
2019-03-18T06:04:46.819Z,101528.69
2019-03-18T06:07:18.091Z,101546.31
2019-03-18T06:09:49.210Z,101529.45
2019-03-18T06:12:20.411Z,101512.14
2019-03-18T06:14:52.037Z,101523.20
2019-03-18T06:17:26.122Z,101516.09
2019-03-18T06:19:57.373Z,101518.67
2019-03-18T06:22:28.637Z,101509.19
2019-03-18T06:24:59.761Z,101438.09
2019-03-18T06:27:31.065Z,101387.20
2019-03-18T06:30:02.955Z,101374.70
2019-03-18T06:32:34.109Z,101370.21
2019-03-18T06:35:05.598Z,101365.86
2019-03-18T06:37:36.912Z,101367.72
2019-03-18T06:40:08.525Z,101412.23
2019-03-18T06:42:39.807Z,101432.85
2019-03-18T06:45:11.750Z,101465.67
2019-03-18T06:47:42.969Z,101518.41
2019-03-18T06:50:15.587Z,101514.77
2019-03-18T06:52:47.049Z,101487.41
2019-03-18T06:55:18.356Z,101469.23
2019-03-18T06:57:49.603Z,101496.70
2019-03-18T07:00:20.780Z,101540.38
2019-03-18T07:02:52.318Z,101571.81
2019-03-18T07:05:28.733Z,101527.68
2019-03-18T07:08:01.677Z,101550.98
2019-03-18T07:10:42.366Z,101529.59
2019-03-18T07:13:13.510Z,101530.06
2019-03-18T07:15:44.897Z,101509.84
2019-03-18T07:18:18.584Z,101458.28
2019-03-18T07:20:49.091Z,101415.03
2019-03-18T07:23:20.339Z,101352.82
2019-03-18T07:26:31.432Z,101295.20
2019-03-18T07:29:02.597Z,101350.60
2019-03-18T07:31:33.844Z,101277.12
2019-03-18T07:34:05.124Z,101233.84
2019-03-18T07:36:36.308Z,101212.36
2019-03-18T07:40:54.595Z,101157.27
2019-03-18T07:43:25.869Z,101199.05
2019-03-18T07:45:57.785Z,101188.73
2019-03-18T07:48:31.506Z,101137.45
2019-03-18T07:51:02.950Z,101163.00
2019-03-18T07:53:34.427Z,101228.77
2019-03-18T07:56:05.740Z,101255.66
2019-03-18T07:58:37.230Z,101236.20
2019-03-18T08:01:08.701Z,101253.20
2019-03-18T08:03:40.131Z,101196.43
2019-03-18T08:06:11.814Z,101128.38
2019-03-18T08:08:42.983Z,101129.44
2019-03-18T08:11:14.823Z,101095.63
2019-03-18T08:13:46.171Z,101141.64
2019-03-18T08:16:17.386Z,101185.44
2019-03-18T08:21:08.980Z,101122.01
2019-03-18T08:23:40.277Z,101152.92
2019-03-18T08:26:12.216Z,101123.95
2019-03-18T08:28:43.377Z,101127.92
2019-03-18T08:31:14.613Z,101216.42
2019-03-18T08:33:45.860Z,101142.98
2019-03-18T08:36:17.476Z,101073.77
2019-03-18T08:38:48.734Z,101016.09
2019-03-18T08:41:20.448Z,100966.75
2019-03-18T08:43:51.685Z,100947.20
2019-03-18T08:46:23.312Z,100933.72
2019-03-18T08:48:56.050Z,100969.16
2019-03-18T08:51:27.985Z,100937.94
2019-03-18T08:53:59.295Z,100999.95
2019-03-18T08:56:30.543Z,101024.47
2019-03-18T08:59:01.735Z,101037.74
2019-03-18T09:01:33.942Z,101064.69
2019-03-18T09:04:05.697Z,101089.77
2019-03-18T09:06:36.907Z,101038.03
2019-03-18T09:09:11.592Z,101043.36
2019-03-18T09:11:42.832Z,101046.42
2019-03-18T09:14:14.144Z,101009.77
2019-03-18T09:16:45.869Z,101009.38
2019-03-18T09:19:17.073Z,100967.05
2019-03-18T09:21:48.596Z,100755.80
2019-03-18T09:24:20.181Z,100768.06
2019-03-18T09:27:01.817Z,100764.80
2019-03-18T09:29:25.501Z,100770.36
2019-03-18T09:31:56.732Z,100763.18
2019-03-18T09:34:28.040Z,100780.91
2019-03-18T09:36:59.286Z,100782.21
2019-03-18T09:39:30.602Z,100742.13
2019-03-18T09:42:02.085Z,100679.55
2019-03-18T09:44:33.421Z,100672.47
2019-03-18T09:47:04.705Z,100657.66
2019-03-18T09:49:35.994Z,100661.97
2019-03-18T09:52:09.244Z,100604.04
2019-03-18T09:54:40.628Z,100756.90
2019-03-18T09:57:11.948Z,100755.87
2019-03-18T09:59:43.663Z,100713.28
2019-03-18T10:02:16.940Z,100668.98
2019-03-18T10:04:54.208Z,100666.54
2019-03-18T10:07:25.933Z,100610.74
2019-03-18T10:09:57.207Z,100647.97
2019-03-18T10:12:29.989Z,100661.15
2019-03-18T10:15:01.311Z,100691.61
2019-03-18T10:17:32.994Z,100781.63
2019-03-18T10:20:04.408Z,100860.64
2019-03-18T10:22:36.124Z,100861.75
2019-03-18T10:25:07.543Z,100860.28
2019-03-18T10:27:38.892Z,100939.22
2019-03-18T10:30:10.302Z,101064.66
2019-03-18T10:33:50.450Z,101136.99
2019-03-18T10:36:22.055Z,101169.05
2019-03-18T10:38:53.337Z,101160.34
2019-03-18T10:41:24.620Z,101147.39
2019-03-18T10:43:55.873Z,101137.02
2019-03-18T10:46:27.113Z,101090.61
2019-03-18T10:48:58.337Z,100983.39
2019-03-18T10:51:32.526Z,100987.47
2019-03-18T10:54:04.179Z,100951.01
2019-03-18T10:56:35.441Z,100947.11
2019-03-18T10:59:06.673Z,100970.16
2019-03-18T11:01:37.903Z,100976.89
2019-03-18T11:04:09.153Z,101029.90
2019-03-18T11:06:40.478Z,101127.72
2019-03-18T11:09:11.680Z,101237.76
2019-03-18T11:11:43.086Z,101368.81
2019-03-18T11:14:14.317Z,101477.59
2019-03-18T11:16:45.597Z,101559.40
2019-03-18T11:19:17.790Z,101592.92
2019-03-18T11:21:49.063Z,101896.96
2019-03-18T11:24:20.302Z,102069.23
2019-03-18T11:26:55.252Z,102191.47
2019-03-18T11:29:26.267Z,102253.64
2019-03-18T11:31:57.850Z,102275.54
2019-03-18T11:34:29.053Z,102287.59
2019-03-18T11:37:00.226Z,102333.22
2019-03-18T11:39:31.584Z,102397.02
2019-03-18T11:42:03.647Z,102788.48
2019-03-18T11:44:34.882Z,102782.73
2019-03-18T11:47:06.345Z,102792.98
2019-03-18T11:51:27.907Z,102676.77
2019-03-18T11:53:59.571Z,102709.62
2019-03-18T11:56:30.789Z,102648.77
2019-03-18T11:59:02.022Z,102538.14
2019-03-18T12:01:33.345Z,102060.34
2019-03-18T12:04:04.875Z,101992.30
2019-03-18T12:06:36.026Z,101946.38
2019-03-18T12:09:08.719Z,101877.31
2019-03-18T12:11:40.094Z,101792.22
2019-03-18T12:15:11.759Z,101628.74
2019-03-18T12:17:43.447Z,101517.47
2019-03-18T12:20:24.297Z,101496.38
2019-03-18T12:22:47.984Z,101433.28
2019-03-18T12:25:19.286Z,101390.56
2019-03-18T12:27:51.014Z,101374.17
2019-03-18T12:30:24.399Z,101337.25
2019-03-18T12:32:56.162Z,101299.42
2019-03-18T12:35:27.407Z,101236.08
2019-03-18T12:37:58.680Z,101182.14
2019-03-18T12:40:29.985Z,101136.05
2019-03-18T12:43:01.401Z,101145.83
2019-03-18T12:45:33.230Z,101174.40
2019-03-18T12:48:04.627Z,101238.27
2019-03-18T12:50:54.448Z,101306.71
2019-03-18T12:53:09.599Z,101387.64
2019-03-18T12:55:40.853Z,101418.42
2019-03-18T12:58:12.019Z,101427.45
2019-03-18T13:00:43.536Z,101371.05
2019-03-18T13:03:15.286Z,101270.80
2019-03-18T13:05:46.726Z,101225.72
2019-03-18T13:08:17.967Z,101127.04
2019-03-18T13:10:49.354Z,101064.48
2019-03-18T13:13:20.827Z,101059.78
2019-03-18T13:15:52.320Z,101056.91
2019-03-18T13:20:28.880Z,101075.41
2019-03-18T13:26:12.075Z,101165.39
2019-03-18T13:28:43.320Z,101187.99
2019-03-18T13:31:17.218Z,101212.53
2019-03-18T13:33:48.557Z,101223.33
2019-03-18T13:36:20.209Z,101220.48
2019-03-18T13:38:51.830Z,101199.83
2019-03-18T13:41:23.344Z,101217.19
2019-03-18T13:43:55.538Z,101205.10
2019-03-18T13:46:26.738Z,101220.71
2019-03-18T13:48:58.336Z,101189.65
2019-03-18T13:51:30.106Z,101186.03
2019-03-18T13:54:01.385Z,101178.12
2019-03-18T13:56:35.470Z,101117.45
2019-03-18T13:59:09.435Z,101041.36
2019-03-18T14:01:40.607Z,101013.48
2019-03-18T14:04:11.883Z,101007.48
2019-03-18T14:06:43.252Z,100992.78
2019-03-18T14:09:14.428Z,100969.77
2019-03-18T14:11:46.026Z,100959.07
2019-03-18T14:14:17.749Z,100945.55
2019-03-18T14:16:49.122Z,100963.14
2019-03-18T14:19:20.871Z,100951.92
2019-03-18T14:21:52.612Z,101015.24
2019-03-18T14:24:23.951Z,101096.10
2019-03-18T14:26:55.303Z,101145.82
2019-03-18T14:29:28.286Z,101182.80
2019-03-18T14:31:59.532Z,101191.79
2019-03-18T14:34:30.804Z,101197.36
2019-03-18T14:37:02.305Z,101177.73
2019-03-18T14:39:33.795Z,101166.14
2019-03-18T14:42:05.993Z,101158.61
2019-03-18T14:44:39.051Z,101153.44
2019-03-18T14:47:11.021Z,101171.91
2019-03-18T14:49:42.806Z,101177.23
2019-03-18T14:52:14.070Z,101177.24
2019-03-18T14:54:45.987Z,101135.41
2019-03-18T14:57:17.437Z,101090.19
2019-03-18T14:59:51.278Z,101029.73
2019-03-18T15:02:22.531Z,101003.95
2019-03-18T15:04:54.328Z,101010.30
2019-03-18T15:07:25.634Z,100953.49
2019-03-18T15:09:56.956Z,100954.58
2019-03-18T15:12:28.217Z,100961.07
2019-03-18T15:14:59.449Z,100958.22
2019-03-18T15:17:31.694Z,100954.40
2019-03-18T15:20:02.943Z,100955.05
2019-03-18T15:22:34.358Z,100950.89
2019-03-18T15:25:06.820Z,100947.25
2019-03-18T15:27:38.234Z,100959.84
2019-03-18T15:30:11.904Z,100997.14
2019-03-18T15:32:43.187Z,101011.94
2019-03-18T15:35:14.470Z,101076.96
2019-03-18T15:37:46.010Z,101115.84
2019-03-18T15:40:17.989Z,101095.63
2019-03-18T15:42:49.320Z,101104.03
2019-03-18T15:45:21.707Z,101102.56
2019-03-18T15:47:53.348Z,101101.42
2019-03-18T15:50:24.638Z,101106.19
2019-03-18T15:52:56.096Z,101112.22
2019-03-18T15:55:27.344Z,101115.83
2019-03-18T15:57:59.022Z,101120.88
2019-03-18T16:00:30.603Z,101123.38
2019-03-18T16:03:01.812Z,101119.16
2019-03-18T16:05:33.001Z,101117.17
2019-03-18T16:08:04.375Z,101119.64
2019-03-18T16:10:36.133Z,101111.27
2019-03-18T16:13:08.029Z,101103.74
2019-03-18T16:15:40.385Z,101090.27
2019-03-18T16:18:11.662Z,101085.56
2019-03-18T16:20:42.905Z,101104.98
2019-03-18T16:23:16.545Z,101112.50
2019-03-18T16:25:48.451Z,101123.09
2019-03-18T16:28:22.180Z,101120.92
2019-03-18T16:30:56.614Z,101126.91
2019-03-18T16:33:28.365Z,101126.38
2019-03-18T16:35:59.651Z,101125.77
2019-03-18T16:38:30.828Z,101135.58
2019-03-18T16:41:05.203Z,101150.69
2019-03-18T16:43:38.989Z,101158.59
2019-03-18T16:46:10.853Z,101187.66
2019-03-18T16:48:42.121Z,101218.95
2019-03-18T16:51:49.294Z,101248.73
2019-03-18T16:54:22.185Z,101287.00
2019-03-18T16:56:53.492Z,101332.83
2019-03-18T16:59:24.763Z,101355.69
2019-03-18T17:01:56.040Z,101385.29
2019-03-18T17:04:27.832Z,101393.04
2019-03-18T17:06:59.964Z,101397.94
2019-03-18T17:09:31.306Z,101407.36
2019-03-18T17:12:05.924Z,101406.46
2019-03-18T17:14:37.594Z,101407.87
2019-03-18T17:17:09.299Z,101413.48
2019-03-18T17:19:40.685Z,101397.30
2019-03-18T17:22:12.043Z,101400.85
2019-03-18T17:24:44.870Z,101376.22
2019-03-18T17:27:18.647Z,101361.48
2019-03-18T17:29:51.093Z,101358.96
2019-03-18T17:32:22.711Z,101362.95
2019-03-18T17:34:54.000Z,101357.70
2019-03-18T17:37:29.070Z,101357.52
2019-03-18T17:40:03.506Z,101360.33
2019-03-18T17:42:35.980Z,101349.88
2019-03-18T17:45:12.947Z,101354.97
2019-03-18T17:47:46.510Z,101364.28
2019-03-18T17:50:19.009Z,101354.55
2019-03-18T17:53:01.639Z,101365.19
2019-03-18T17:55:24.288Z,101354.61
2019-03-18T17:57:55.749Z,101351.34
2019-03-18T18:00:33.201Z,101353.17
2019-03-18T18:03:05.226Z,101356.66
2019-03-18T18:05:36.457Z,101347.55
2019-03-18T18:08:09.882Z,101350.47
2019-03-18T18:10:41.101Z,101361.63
2019-03-18T18:13:12.784Z,101369.06
2019-03-18T18:15:43.994Z,101374.28
2019-03-18T18:18:15.401Z,101383.13
2019-03-18T18:20:47.005Z,101388.23
2019-03-18T18:23:18.254Z,101386.86
2019-03-18T18:25:49.584Z,101379.81
2019-03-18T18:28:22.366Z,101394.95
2019-03-18T18:30:53.601Z,101403.69
2019-03-18T18:33:25.029Z,101414.03
2019-03-18T18:35:56.249Z,101422.77
2019-03-18T18:38:28.065Z,101416.79
2019-03-18T18:40:59.710Z,101427.33
2019-03-18T18:43:31.036Z,101431.75
2019-03-18T18:46:02.591Z,101440.16
2019-03-18T18:48:33.827Z,101456.31
2019-03-18T18:51:05.051Z,101467.78
2019-03-18T18:53:36.259Z,101475.73
2019-03-18T18:56:09.898Z,101488.63
2019-03-18T18:58:41.163Z,101495.09
2019-03-18T19:01:13.422Z,101500.02
2019-03-18T19:03:44.752Z,101502.11
2019-03-18T19:06:15.983Z,101511.23
2019-03-18T19:08:47.374Z,101521.50
2019-03-18T19:11:19.694Z,101541.41
2019-03-18T19:13:50.909Z,101539.33
2019-03-18T19:16:22.446Z,101542.05
2019-03-18T19:18:53.752Z,101545.17
2019-03-18T19:21:26.099Z,101536.70
2019-03-18T19:23:57.795Z,101542.34
2019-03-18T19:26:29.501Z,101537.03
2019-03-18T19:29:00.896Z,101534.77
2019-03-18T19:31:32.471Z,101530.52
2019-03-18T19:34:04.730Z,101534.08
2019-03-18T19:36:36.116Z,101544.73
2019-03-18T19:39:08.642Z,101543.49
2019-03-18T19:41:40.533Z,101548.87
2019-03-18T19:44:11.778Z,101548.81
2019-03-18T19:46:43.706Z,101557.73
2019-03-18T19:49:14.886Z,101556.14
2019-03-18T19:51:46.508Z,101555.75
2019-03-18T19:54:17.669Z,101553.05
2019-03-18T19:56:49.361Z,101551.20
2019-03-18T19:59:22.678Z,101544.18
2019-03-18T20:01:53.939Z,101542.80
2019-03-18T20:04:25.623Z,101544.17
2019-03-18T20:06:56.937Z,101534.89
2019-03-18T20:09:28.116Z,101536.38
2019-03-18T20:11:59.727Z,101540.72
2019-03-18T20:14:32.695Z,101540.83
2019-03-18T20:17:04.085Z,101549.20
2019-03-18T20:19:36.186Z,101548.72
2019-03-18T20:22:08.029Z,101547.80
2019-03-18T20:24:39.277Z,101559.33
2019-03-18T20:27:11.655Z,101557.99
2019-03-18T20:29:42.978Z,101558.20
2019-03-18T20:32:15.809Z,101567.05
2019-03-18T20:34:46.968Z,101568.70
2019-03-18T20:37:18.363Z,101563.56
2019-03-18T20:39:49.508Z,101568.00
2019-03-18T20:42:20.806Z,101576.05
2019-03-18T20:44:53.760Z,101581.41
2019-03-18T20:47:26.074Z,101585.41
2019-03-18T20:49:57.872Z,101584.00
2019-03-18T20:52:29.741Z,101591.86
2019-03-18T20:55:00.892Z,101600.78
2019-03-18T20:57:32.222Z,101612.39
2019-03-18T21:00:03.554Z,101613.66
2019-03-18T21:02:36.506Z,101607.73
2019-03-18T21:05:08.522Z,101621.03
2019-03-18T21:07:39.862Z,101622.69
2019-03-18T21:10:11.416Z,101619.14
2019-03-18T21:12:43.089Z,101612.91
2019-03-18T21:15:14.321Z,101620.45
2019-03-18T21:17:45.702Z,101635.06
2019-03-18T21:20:17.223Z,101635.06
2019-03-18T21:22:48.369Z,101644.38
2019-03-18T21:25:20.013Z,101645.27
2019-03-18T21:27:51.315Z,101653.25
2019-03-18T21:30:22.665Z,101651.92
2019-03-18T21:32:54.135Z,101654.57
2019-03-18T21:35:25.458Z,101654.24
2019-03-18T21:37:56.760Z,101656.40
2019-03-18T21:40:27.950Z,101656.69
2019-03-18T21:42:59.362Z,101655.91
2019-03-18T21:45:31.013Z,101656.98
2019-03-18T21:48:02.212Z,101664.50
2019-03-18T21:50:34.503Z,101668.57
2019-03-18T21:53:06.058Z,101669.48
2019-03-18T21:55:37.378Z,101675.23
2019-03-18T21:58:08.722Z,101682.46
2019-03-18T22:00:39.941Z,101679.73
2019-03-18T22:03:12.111Z,101684.66
2019-03-18T22:05:43.726Z,101699.71
2019-03-18T22:08:14.891Z,101693.11
2019-03-18T22:10:46.523Z,101704.58
2019-03-18T22:13:17.764Z,101693.53
2019-03-18T22:15:51.846Z,101690.04
2019-03-18T22:18:23.111Z,101696.21
2019-03-18T22:20:56.074Z,101704.20
2019-03-18T22:23:27.519Z,101705.16
2019-03-18T22:25:59.058Z,101708.22
2019-03-18T22:28:30.481Z,101716.58
2019-03-18T22:31:02.035Z,101715.27
2019-03-18T22:33:33.334Z,101709.14
2019-03-18T22:36:04.953Z,101713.20
2019-03-18T22:38:36.163Z,101718.37
2019-03-18T22:41:07.462Z,101716.66
2019-03-18T22:43:41.245Z,101718.03
2019-03-18T22:46:12.455Z,101717.66
2019-03-18T22:48:44.008Z,101720.77
2019-03-18T22:51:15.330Z,101731.29
2019-03-18T22:53:46.907Z,101731.81
2019-03-18T22:56:18.108Z,101730.47
2019-03-18T22:58:49.357Z,101734.45
2019-03-18T23:01:22.552Z,101730.91
2019-03-18T23:03:54.271Z,101732.76
2019-03-18T23:06:26.943Z,101742.55
2019-03-18T23:08:58.442Z,101745.63
2019-03-18T23:11:30.373Z,101748.23
2019-03-18T23:14:01.708Z,101755.70
2019-03-18T23:16:32.998Z,101761.11
2019-03-18T23:19:04.330Z,101765.89
2019-03-18T23:21:35.841Z,101772.09
2019-03-18T23:24:08.915Z,101772.97
2019-03-18T23:26:40.139Z,101776.10
2019-03-18T23:29:11.581Z,101778.74
2019-03-18T23:31:43.481Z,101781.01
2019-03-18T23:34:15.545Z,101782.76
2019-03-18T23:36:47.291Z,101788.07
2019-03-18T23:39:18.562Z,101785.89
2019-03-18T23:41:50.684Z,101795.20
2019-03-18T23:44:22.879Z,101807.63
2019-03-18T23:58:51.942Z,101811.05
